Latest Weather Observations for PORTABLE QFRJ (North Tamborine)

IDQ60801

Issued at 8:02 pm EST Friday 26 February 2021 (issued every 10 minutes, with the page automatically refreshed every 10 minutes)

About weather observations | Map of weather stations | Latest weather observations for QLD | Other Formats
Station Details ID: 250074 Name: NORTH TAMBORINE (QFRJ) Lat: -27.94 Lon: 153.19 Height: 527.0 m

Portable automatic weather stations (PAWS) are operated by other organisations, such as Fire and Emergency Services, and are included here by agreement. Portable stations may be deployed to a location for a short period and their location may be subject to change without notice. Wind observations from these stations are provided from heights of either three (3) or ten (10) metres above ground level (AGL).

Data from the previous 72 hours. | See also: Recent months for locations in Queensland
Date/Time
EST
Temp
°C
App
Temp
°C
Dew
Point
°C
Rel
Hum
%
Delta-T
°C
Wind Press
QNH
hPa
Press
MSL
hPa
Rain since
9am
mm
Dir  Spd
km/h
Gust
km/h
Spd
kts
Gust
kts
26/07:50pm 21.5 24.7 21.3 99 0.1 E 6 9 3 5 - - 0.0
26/07:40pm 21.5 24.5 21.3 99 0.1 E 7 7 4 4 - - 0.0
26/07:30pm 21.7 25.0 21.4 98 0.2 E 6 7 3 4 - - 0.0
26/07:20pm 21.7 25.0 21.4 98 0.2 E 6 7 3 4 - - 0.0
26/07:10pm 21.7 24.8 21.5 99 0.1 E 7 11 4 6 - - 0.0
26/07:00pm 21.8 24.9 21.4 98 0.3 E 7 9 4 5 - - 0.0
26/06:50pm 21.8 24.5 21.4 98 0.3 E 9 13 5 7 - - 0.0
26/06:40pm 22.0 24.8 21.5 97 0.3 E 9 11 5 6 - - 0.0
26/06:30pm 22.1 24.9 21.6 97 0.3 E 9 11 5 6 - - 0.0
26/06:20pm 22.3 24.7 21.6 96 0.5 E 11 13 6 7 - - 0.0
26/06:10pm 22.6 25.0 21.6 94 0.7 E 11 13 6 7 - - 0.0
26/06:00pm 23.0 25.8 21.6 92 0.9 E 9 13 5 7 - - 0.0
26/05:50pm 23.2 26.0 21.6 91 1.1 E 9 13 5 7 - - 0.0
26/05:40pm 23.4 25.4 21.6 90 1.2 E 13 17 7 9 - - 0.0
26/05:30pm 23.7 26.2 21.8 89 1.3 E 11 15 6 8 - - 0.0
26/05:20pm 23.9 26.4 21.8 88 1.4 E 11 13 6 7 - - 0.0
26/05:10pm 24.1 26.3 21.8 87 1.6 E 13 15 7 8 - - 0.0
26/05:00pm 24.6 27.2 21.9 85 1.8 E 11 13 6 7 - - 0.0
26/04:50pm 24.7 27.3 22.0 85 1.8 E 11 15 6 8 - - 0.0
26/04:40pm 25.0 27.6 21.9 83 2.1 E 11 15 6 8 - - 0.0
26/04:30pm 25.2 27.9 22.1 83 2.1 E 11 17 6 9 - - 0.0
26/04:20pm 25.5 28.0 21.8 80 2.5 E 11 15 6 8 - - 0.0
26/04:10pm 25.6 27.7 21.7 79 2.6 E 13 17 7 9 - - 0.0
26/04:00pm 26.0 28.6 21.9 78 2.8 E 11 13 6 7 - - 0.0
26/03:50pm 26.3 28.7 21.5 75 3.3 ESE 11 13 6 7 - - 0.0
26/03:40pm 26.4 28.8 21.5 74 3.3 E 11 15 6 8 - - 0.0
26/03:30pm 26.4 29.2 21.5 74 3.3 E 9 13 5 7 - - 0.0
26/03:20pm 26.2 28.2 20.7 71 3.7 E 11 17 6 9 - - 0.0
26/03:10pm 27.0 29.4 21.5 72 3.7 E 11 15 6 8 - - 0.0
26/03:00pm 27.4 30.1 20.7 67 4.5 E 7 9 4 5 - - 0.0
26/02:50pm 28.1 30.6 19.1 58 5.9 E 4 9 2 5 - - 0.0
26/02:40pm 27.9 30.6 19.4 60 5.6 NNE 4 7 2 4 - - 0.0
26/02:30pm 28.0 30.4 19.6 60 5.6 E 6 7 3 4 - - 0.0
26/02:20pm 28.4 31.1 19.4 58 6.0 NNW 4 6 2 3 - - 0.0
26/02:10pm 27.9 30.5 19.3 59 5.7 WNW 4 7 2 4 - - 0.0
26/02:00pm 28.0 30.9 19.9 61 5.4 NW 4 7 2 4 - - 0.0
26/01:50pm 27.8 30.2 18.7 57 6.0 W 4 7 2 4 - - 0.0
26/01:40pm 27.6 30.0 19.6 61 5.3 WSW 6 7 3 4 - - 0.0
26/01:30pm 27.3 29.4 18.0 56 6.0 W 4 7 2 4 - - 0.0
26/01:20pm 26.4 28.0 18.3 61 5.2 W 7 9 4 5 - - 0.0
26/01:10pm 26.6 28.9 19.4 64 4.7 W 6 9 3 5 - - 0.0
26/01:00pm 26.6 29.3 19.4 64 4.7 NW 4 7 2 4 - - 0.0
26/12:50pm 25.7 27.2 18.0 62 5.0 WNW 7 11 4 6 - - 0.0
26/12:40pm 25.8 27.9 19.4 67 4.2 SSW 7 11 4 6 - - 0.0
26/12:30pm 26.3 28.5 19.2 65 4.7 W 6 13 3 7 - - 0.0
26/12:20pm 26.3 28.1 18.2 61 5.2 W 6 7 3 4 - - 0.0
26/12:10pm 25.8 27.3 18.8 65 4.6 W 9 11 5 6 - - 0.0
26/12:00pm 25.5 27.2 19.4 69 4.0 W 9 13 5 7 - - 0.0
26/11:50am 25.3 27.0 19.3 69 3.9 WNW 9 15 5 8 - - 0.0
26/11:40am 25.1 26.3 19.1 69 3.9 W 11 13 6 7 - - 0.0
26/11:30am 24.9 26.9 19.9 74 3.3 W 9 11 5 6 - - 0.0
26/11:20am 24.5 26.2 19.3 73 3.4 WNW 9 11 5 6 - - 0.0
26/11:10am 24.0 25.7 19.3 75 3.1 WNW 9 13 5 7 - - 0.0
26/11:00am 24.1 25.4 19.3 74 3.1 W 11 17 6 9 - - 0.0
26/10:50am 23.5 24.9 19.5 78 2.6 W 11 13 6 7 - - 0.0
26/10:40am 23.4 25.0 19.9 81 2.3 W 11 13 6 7 - - 0.0
26/10:30am 23.8 25.5 20.1 80 2.4 W 11 13 6 7 - - 0.0
26/10:20am 23.7 25.5 19.5 77 2.7 W 9 13 5 7 - - 0.0
26/10:00am 23.1 25.3 19.6 80 2.3 W 7 11 4 6 - - 0.0
26/09:50am 22.9 24.5 20.0 84 1.9 W 11 13 6 7 - - 0.0
26/09:40am 23.0 25.1 20.2 84 1.8 W 9 13 5 7 - - 0.0
26/09:30am 22.8 24.6 19.6 82 2.1 WNW 9 13 5 7 - - 0.0
26/09:20am 22.6 24.9 19.9 85 1.8 W 7 11 4 6 - - 0.0
26/09:10am 23.1 25.8 20.6 86 1.7 W 7 11 4 6 - - 0.0
26/09:00am 23.0 25.3 19.8 82 2.1 W 7 9 4 5 - - 10.8
26/08:50am 22.7 25.2 20.2 86 1.6 W 7 9 4 5 - - 10.8
26/08:40am 22.4 24.8 19.6 84 1.8 WNW 6 9 3 5 - - 10.8
26/08:30am 22.0 24.0 20.0 88 1.3 W 9 11 5 6 - - 10.8
26/08:20am 21.7 23.7 20.0 90 1.1 W 9 11 5 6 - - 10.8
26/08:10am 21.7 23.9 20.3 92 0.9 W 9 11 5 6 - - 10.8
26/08:00am 21.6 23.1 19.8 89 1.2 W 11 11 6 6 - - 10.8
26/07:50am 21.6 23.6 20.0 91 1.0 WNW 9 13 5 7 - - 10.8
26/07:40am 21.2 23.2 20.0 93 0.8 WNW 9 11 5 6 - - 10.8
26/07:30am 20.9 22.5 20.0 95 0.6 WNW 11 13 6 7 - - 10.8
26/07:20am 20.6 22.4 20.3 98 0.2 NW 11 13 6 7 - - 10.8
26/07:10am 20.5 22.7 20.5 100 0.0 NW 9 13 5 7 - - 10.8
26/07:00am 20.4 22.6 20.4 100 0.0 NW 9 11 5 6 - - 10.8
26/06:50am 20.3 22.8 20.3 100 0.0 NW 7 9 4 5 - - 10.8
26/06:40am 20.4 23.0 20.4 100 0.0 WNW 7 9 4 5 - - 10.8
26/06:30am 20.3 23.4 20.3 100 0.0 W 4 7 2 4 - - 10.8
26/06:20am 20.3 23.8 20.3 100 0.0 W 2 4 1 2 - - 10.8
26/06:10am 20.0 23.7 20.0 100 0.0 CALM 0 2 0 1 - - 10.8
26/06:00am 19.9 23.6 19.9 100 0.0 CALM 0 2 0 1 - - 10.8
26/05:50am 19.9 23.2 19.9 100 0.0 N 2 4 1 2 - - 10.8
26/05:40am 19.9 23.2 19.9 100 0.0 N 2 6 1 3 - - 10.8
26/05:30am 19.9 22.4 19.9 100 0.0 NNW 6 6 3 3 - - 10.8
26/05:20am 20.0 22.6 20.0 100 0.0 NNW 6 7 3 4 - - 10.8
26/05:10am 20.0 22.6 20.0 100 0.0 NW 6 9 3 5 - - 10.8
26/05:00am 20.0 22.4 20.0 100 0.0 NW 7 9 4 5 - - 10.8
26/04:50am 20.0 22.4 20.0 100 0.0 NNW 7 9 4 5 - - 10.8
26/04:40am 19.9 22.2 19.9 100 0.0 NNW 7 9 4 5 - - 10.8
26/04:30am 19.8 22.1 19.8 100 0.0 N 7 11 4 6 - - 10.8
26/04:20am 19.8 22.1 19.8 100 0.0 NNW 7 9 4 5 - - 10.8
26/04:10am 19.8 22.3 19.8 100 0.0 NW 6 7 3 4 - - 10.8
26/04:00am 19.7 22.5 19.7 100 0.0 NNW 4 6 2 3 - - 10.8
26/03:50am 19.7 23.3 19.7 100 0.0 CALM 0 2 0 1 - - 10.8
26/03:40am 19.8 23.0 19.8 100 0.0 N 2 4 1 2 - - 10.8
26/03:30am 19.9 22.8 19.9 100 0.0 N 4 4 2 2 - - 10.8
26/03:20am 19.8 22.7 19.8 100 0.0 N 4 7 2 4 - - 10.8
26/03:00am 19.9 23.2 19.9 100 0.0 NNE 2 4 1 2 - - 10.8
26/02:50am 20.0 23.0 20.0 100 0.0 NNE 4 6 2 3 - - 10.8
26/02:40am 20.1 23.5 20.1 100 0.0 N 2 4 1 2 - - 10.8
26/02:30am 20.2 23.6 20.2 100 0.0 NNE 2 4 1 2 - - 10.8
26/02:20am 20.2 23.3 20.2 100 0.0 NNE 4 6 2 3 - - 10.8
26/02:10am 20.2 23.3 20.2 100 0.0 NNE 4 6 2 3 - - 10.8
26/02:00am 20.2 23.3 20.2 100 0.0 NE 4 6 2 3 - - 10.8
26/01:50am 20.2 23.3 20.2 100 0.0 NNE 4 7 2 4 - - 10.8
26/01:40am 20.3 23.4 20.3 100 0.0 NNE 4 6 2 3 - - 10.8
26/01:30am 20.3 23.0 20.3 100 0.0 NNE 6 9 3 5 - - 10.8
26/01:20am 20.3 23.0 20.3 100 0.0 NE 6 7 3 4 - - 10.8
26/01:10am 20.2 22.7 20.2 100 0.0 ENE 7 11 4 6 - - 10.8
26/01:00am 20.2 22.7 20.2 100 0.0 E 7 9 4 5 - - 10.8
26/12:50am 20.2 22.9 20.2 100 0.0 ENE 6 7 3 4 - - 10.8
26/12:40am 20.1 22.7 20.1 100 0.0 NE 6 7 3 4 - - 10.8
26/12:30am 20.1 22.5 20.1 100 0.0 ENE 7 9 4 5 - - 10.8
26/12:20am 20.2 22.9 20.2 100 0.0 NE 6 7 3 4 - - 10.8
26/12:10am 20.2 22.9 20.2 100 0.0 NNE 6 9 3 5 - - 10.8
26/12:00am 20.2 22.9 20.2 100 0.0 NE 6 7 3 4 - - 10.8
 
Date/Time
EST
Temp
°C
App
Temp
°C
Dew
Point
°C
Rel
Hum
%
Delta-T
°C
Wind Press
QNH
hPa
Press
MSL
hPa
Rain since
9am
mm
Dir  Spd
km/h
Gust
km/h
Spd
kts
Gust
kts
25/11:50pm 20.2 22.9 20.2 100 0.0 NE 6 7 3 4 - - 10.8
25/11:40pm 20.2 23.3 20.2 100 0.0 NE 4 6 2 3 - - 10.8
25/11:30pm 20.2 23.3 20.2 100 0.0 NNE 4 6 2 3 - - 10.8
25/11:20pm 20.2 23.3 20.2 100 0.0 NNE 4 6 2 3 - - 10.8
25/11:10pm 20.2 22.9 20.2 100 0.0 NE 6 9 3 5 - - 10.8
25/11:00pm 20.2 22.7 20.2 100 0.0 ENE 7 11 4 6 - - 10.8
25/10:50pm 20.2 22.7 20.2 100 0.0 ENE 7 7 4 4 - - 10.8
25/10:40pm 20.2 22.7 20.2 100 0.0 ENE 7 11 4 6 - - 10.8
25/10:30pm 20.2 22.7 20.2 100 0.0 ENE 7 11 4 6 - - 10.8
25/10:20pm 20.1 22.2 20.1 100 0.0 ENE 9 11 5 6 - - 10.8
25/10:10pm 20.1 22.2 20.1 100 0.0 ENE 9 11 5 6 - - 10.8
25/10:00pm 20.2 22.7 20.2 100 0.0 ENE 7 11 4 6 - - 10.8
25/09:50pm 20.3 22.8 20.3 100 0.0 ENE 7 7 4 4 - - 10.8
25/09:40pm 20.2 22.7 20.2 100 0.0 ENE 7 9 4 5 - - 10.8
25/09:30pm 20.2 22.7 20.2 100 0.0 E 7 9 4 5 - - 10.8
25/09:20pm 20.2 22.3 20.2 100 0.0 E 9 11 5 6 - - 10.8
25/09:10pm 20.3 22.5 20.3 100 0.0 E 9 13 5 7 - - 10.8
25/09:00pm 20.4 23.0 20.4 100 0.0 ENE 7 9 4 5 - - 10.8
25/08:50pm 20.4 23.2 20.4 100 0.0 ESE 6 9 3 5 - - 10.8
25/08:40pm 20.4 23.2 20.4 100 0.0 NE 6 7 3 4 - - 10.8
25/08:30pm 20.4 23.0 20.4 100 0.0 E 7 11 4 6 - - 10.8
25/08:20pm 20.5 23.7 20.5 100 0.0 ENE 4 7 2 4 - - 10.8
25/08:10pm 20.5 23.1 20.5 100 0.0 ENE 7 11 4 6 - - 10.8
25/08:00pm 20.5 22.7 20.5 100 0.0 ENE 9 13 5 7 - - 10.8
25/07:50pm 20.5 22.0 20.5 100 0.0 E 13 17 7 9 - - 10.8
25/07:40pm 20.5 22.7 20.5 100 0.0 ENE 9 13 5 7 - - 10.8
25/07:30pm 20.6 22.9 20.6 100 0.0 E 9 15 5 8 - - 10.8
25/07:20pm 20.6 22.9 20.6 100 0.0 ENE 9 13 5 7 - - 10.8
25/07:10pm 20.7 23.0 20.7 100 0.0 ENE 9 11 5 6 - - 10.8
25/07:00pm 20.6 22.9 20.6 100 0.0 ENE 9 11 5 6 - - 10.8
25/06:50pm 20.7 23.4 20.7 100 0.0 ENE 7 9 4 5 - - 10.8
25/06:40pm 20.8 23.6 20.8 100 0.0 ENE 7 7 4 4 - - 10.8
25/06:30pm 20.8 23.6 20.8 100 0.0 ENE 7 9 4 5 - - 10.8
25/06:20pm 20.9 23.3 20.8 99 0.1 ENE 9 11 5 6 - - 10.8
25/06:10pm 21.0 23.8 20.8 99 0.1 E 7 7 4 4 - - 10.8
25/06:00pm 21.1 23.9 20.9 99 0.1 ENE 7 9 4 5 - - 10.8
25/05:50pm 21.2 24.1 21.0 99 0.1 ENE 7 9 4 5 - - 10.8
25/05:40pm 21.4 23.9 21.0 98 0.3 E 9 13 5 7 - - 10.8
25/05:30pm 21.6 24.5 21.0 96 0.4 E 7 11 4 6 - - 10.8
25/05:20pm 21.8 24.4 21.2 96 0.4 E 9 13 5 7 - - 10.8
25/05:10pm 21.9 24.4 21.1 95 0.5 E 9 13 5 7 - - 10.8
25/05:00pm 21.9 24.1 21.2 96 0.5 E 11 13 6 7 - - 10.8
25/04:50pm 21.8 24.0 21.2 96 0.4 E 11 15 6 8 - - 10.8
25/04:40pm 21.8 24.2 21.6 99 0.1 E 11 13 6 7 - - 10.8
25/04:30pm 21.6 24.4 21.5 99 0.1 E 9 13 5 7 - - 10.8
25/04:20pm 21.6 24.9 21.4 99 0.1 E 6 7 3 4 - - 10.8
25/04:10pm 21.7 24.4 21.4 98 0.2 ESE 9 15 5 8 - - 10.8
25/04:00pm 21.8 25.1 21.8 100 0.0 E 7 11 4 6 - - 10.8
25/03:50pm 21.6 24.4 21.6 100 0.0 E 9 13 5 7 - - 10.8
25/03:40pm 21.6 24.4 21.6 100 0.0 E 9 13 5 7 - - 10.8
25/03:30pm 21.5 23.9 21.5 100 0.0 E 11 13 6 7 - - 10.8
25/03:20pm 21.6 24.4 21.6 100 0.0 E 9 13 5 7 - - 10.8
25/03:10pm 21.5 24.6 21.5 100 0.0 ENE 7 11 4 6 - - 10.8
25/03:00pm 21.4 24.5 21.4 100 0.0 E 7 11 4 6 - - 10.8
25/02:50pm 21.6 24.0 21.6 100 0.0 E 11 13 6 7 - - 10.8
25/02:40pm 21.5 23.5 21.5 100 0.0 E 13 15 7 8 - - 10.8
25/02:30pm 21.5 23.9 21.5 100 0.0 E 11 13 6 7 - - 10.8
25/02:20pm 21.2 23.8 21.2 100 0.0 E 9 11 5 6 - - 10.8
25/02:10pm 21.1 23.6 21.1 100 0.0 E 9 13 5 7 - - 10.8
25/02:00pm 20.9 23.3 20.9 100 0.0 E 9 11 5 6 - - 10.8
25/01:50pm 21.0 23.5 21.0 100 0.0 ENE 9 13 5 7 - - 10.6
25/01:40pm 21.0 23.5 21.0 100 0.0 ENE 9 13 5 7 - - 10.4
25/01:30pm 21.1 22.9 21.1 100 0.0 E 13 15 7 8 - - 10.0
25/01:20pm 21.2 23.4 21.2 100 0.0 E 11 17 6 9 - - 10.0
25/01:10pm 21.3 23.2 21.3 100 0.0 E 13 17 7 9 - - 10.0
25/01:00pm 21.5 23.9 21.5 100 0.0 E 11 15 6 8 - - 10.0
25/12:50pm 21.4 24.1 21.4 100 0.0 E 9 13 5 7 - - 10.0
25/12:40pm 21.5 23.9 21.5 100 0.0 E 11 15 6 8 - - 10.0
25/12:30pm 21.5 23.9 21.5 100 0.0 E 11 13 6 7 - - 10.0
25/12:20pm 21.5 23.9 21.5 100 0.0 E 11 15 6 8 - - 10.0
25/12:10pm 21.4 23.7 21.4 100 0.0 E 11 15 6 8 - - 10.0
25/12:00pm 21.0 23.1 21.0 100 0.0 E 11 13 6 7 - - 10.0
25/11:50am 21.0 23.1 21.0 100 0.0 E 11 13 6 7 - - 10.0
25/11:40am 21.0 22.7 21.0 100 0.0 E 13 15 7 8 - - 10.0
25/11:30am 21.1 22.9 21.1 100 0.0 - 13 15 7 8 - - 10.0
25/11:20am 20.8 22.8 20.8 100 0.0 E 11 15 6 8 - - 10.0
25/11:10am 20.7 23.0 20.7 100 0.0 E 9 15 5 8 - - 10.0
25/11:00am 20.8 22.8 20.8 100 0.0 E 11 15 6 8 - - 10.0
25/10:50am 21.0 23.1 21.0 100 0.0 ESE 11 13 6 7 - - 10.0
25/10:40am 20.5 22.4 20.5 100 0.0 ESE 11 13 6 7 - - 10.0
25/10:30am 20.3 22.5 20.3 100 0.0 E 9 13 5 7 - - 10.0
25/10:20am 20.2 21.9 20.2 100 0.0 ESE 11 13 6 7 - - 10.0
25/10:10am 20.1 21.8 20.1 100 0.0 E 11 13 6 7 - - 10.0
25/10:00am 20.1 22.2 20.1 100 0.0 E 9 11 5 6 - - 10.0
25/09:50am 19.9 21.1 19.9 100 0.0 E 13 15 7 8 - - 9.8
25/09:40am 19.9 21.1 19.9 100 0.0 E 13 15 7 8 - - 9.4
25/09:30am 19.9 22.2 19.9 100 0.0 E 7 9 4 5 - - 9.2
25/09:20am 19.8 20.6 19.8 100 0.0 ESE 15 20 8 11 - - 6.8
25/09:10am 20.1 22.2 20.1 100 0.0 E 9 15 5 8 - - 0.2
25/09:00am 20.2 22.7 20.2 100 0.0 ESE 7 13 4 7 - - 29.4
25/08:50am 20.3 22.1 20.3 100 0.0 E 11 17 6 9 - - 29.4
25/08:40am 20.3 22.1 20.3 100 0.0 ESE 11 15 6 8 - - 29.4
25/08:30am 20.2 21.9 20.2 100 0.0 E 11 17 6 9 - - 29.4
25/08:20am 20.1 22.2 20.1 100 0.0 ESE 9 15 5 8 - - 29.4
25/08:10am 19.9 22.2 19.9 100 0.0 ESE 7 11 4 6 - - 29.4
25/08:00am 19.9 21.9 19.9 100 0.0 ESE 9 15 5 8 - - 29.4
25/07:50am 19.9 21.9 19.9 100 0.0 E 9 11 5 6 - - 29.4
25/07:40am 19.8 22.3 19.8 100 0.0 E 6 11 3 6 - - 29.4
25/07:30am 19.7 21.2 19.7 100 0.0 E 11 13 6 7 - - 29.4
25/07:20am 19.7 21.2 19.7 100 0.0 E 11 13 6 7 - - 29.4
25/07:10am 19.7 21.6 19.7 100 0.0 E 9 13 5 7 - - 29.4
25/07:00am 19.6 21.0 19.6 100 0.0 E 11 15 6 8 - - 29.4
25/06:50am 19.6 21.0 19.6 100 0.0 E 11 13 6 7 - - 29.4
25/06:40am 19.6 21.4 19.6 100 0.0 ESE 9 11 5 6 - - 29.4
25/06:30am 19.6 21.0 19.6 100 0.0 ESE 11 15 6 8 - - 29.4
25/06:20am 19.5 21.7 19.5 100 0.0 E 7 9 4 5 - - 29.4
25/06:10am 19.5 22.2 19.5 100 0.0 ENE 4 7 2 4 - - 29.2
25/06:00am 19.5 21.3 19.5 100 0.0 ESE 9 15 5 8 - - 29.0
25/05:50am 19.5 21.3 19.5 100 0.0 E 9 13 5 7 - - 28.8
25/05:40am 19.5 22.2 19.5 100 0.0 NE 4 7 2 4 - - 28.8
25/05:30am 19.5 22.2 19.5 100 0.0 ENE 4 7 2 4 - - 28.2
25/05:20am 19.5 21.7 19.5 100 0.0 E 7 11 4 6 - - 27.4
25/05:10am 19.4 21.5 19.4 100 0.0 ENE 7 11 4 6 - - 27.2
25/05:00am 19.4 21.7 19.4 100 0.0 E 6 9 3 5 - - 27.2
25/04:50am 19.4 21.7 19.4 100 0.0 ENE 6 7 3 4 - - 27.0
25/04:40am 19.3 20.6 19.3 100 0.0 E 11 13 6 7 - - 27.0
25/04:30am 19.5 21.7 19.5 100 0.0 E 7 13 4 7 - - 26.8
25/04:20am 19.5 21.3 19.5 100 0.0 ESE 9 11 5 6 - - 26.4
25/04:10am 19.6 22.0 19.6 100 0.0 E 6 11 3 6 - - 26.2
25/04:00am 19.6 21.4 19.6 100 0.0 E 9 13 5 7 - - 26.0
25/03:50am 19.6 21.8 19.6 100 0.0 E 7 15 4 8 - - 26.0
25/03:40am 19.5 21.7 19.5 100 0.0 E 7 9 4 5 - - 26.0
25/03:30am 19.5 21.7 19.5 100 0.0 ENE 7 9 4 5 - - 25.2
25/03:20am 19.5 21.8 19.5 100 0.0 E 6 9 3 5 - - 25.0
25/03:10am 19.4 21.7 19.4 100 0.0 E 6 9 3 5 - - 25.0
25/03:00am 19.4 21.7 19.4 100 0.0 E 6 11 3 6 - - 25.0
25/02:50am 19.3 21.0 19.3 100 0.0 E 9 11 5 6 - - 25.0
25/02:40am 19.3 20.6 19.3 100 0.0 E 11 13 6 7 - - 25.0
25/02:30am 19.3 21.0 19.3 100 0.0 E 9 11 5 6 - - 25.0
25/02:20am 19.3 21.4 19.3 100 0.0 ENE 7 13 4 7 - - 25.0
25/02:10am 19.3 21.0 19.3 100 0.0 E 9 13 5 7 - - 25.0
25/02:00am 19.3 20.6 19.3 100 0.0 ENE 11 19 6 10 - - 25.0
25/01:50am 19.3 21.4 19.3 100 0.0 E 7 9 4 5 - - 24.8
25/01:40am 19.3 21.4 19.3 100 0.0 E 7 11 4 6 - - 24.4
25/01:30am 19.3 21.0 19.3 100 0.0 E 9 11 5 6 - - 23.4
25/01:20am 19.3 21.4 19.3 100 0.0 E 7 11 4 6 - - 23.4
25/01:10am 19.4 20.7 19.4 100 0.0 E 11 13 6 7 - - 23.4
25/01:00am 19.4 20.7 19.4 100 0.0 E 11 15 6 8 - - 23.4
25/12:50am 19.5 20.9 19.5 100 0.0 E 11 15 6 8 - - 23.4
25/12:40am 19.5 20.9 19.5 100 0.0 E 11 13 6 7 - - 23.4
25/12:30am 19.6 21.0 19.6 100 0.0 E 11 15 6 8 - - 23.4
25/12:20am 19.6 21.0 19.6 100 0.0 E 11 15 6 8 - - 23.4
25/12:10am 19.6 21.0 19.6 100 0.0 E 11 13 6 7 - - 23.4
25/12:00am 19.6 21.0 19.6 100 0.0 E 11 17 6 9 - - 23.4
 
Date/Time
EST
Temp
°C
App
Temp
°C
Dew
Point
°C
Rel
Hum
%
Delta-T
°C
Wind Press
QNH
hPa
Press
MSL
hPa
Rain since
9am
mm
Dir  Spd
km/h
Gust
km/h
Spd
kts
Gust
kts
24/11:50pm 19.6 21.0 19.6 100 0.0 E 11 15 6 8 - - 23.4
24/11:40pm 19.6 21.0 19.6 100 0.0 E 11 13 6 7 - - 23.2
24/11:30pm 19.6 21.0 19.6 100 0.0 E 11 15 6 8 - - 23.0
24/11:20pm 19.7 21.6 19.7 100 0.0 E 9 11 5 6 - - 23.0
24/11:10pm 19.6 21.4 19.6 100 0.0 E 9 11 5 6 - - 23.0
24/11:00pm 19.6 21.4 19.6 100 0.0 E 9 13 5 7 - - 23.0
24/10:50pm 19.6 21.0 19.6 100 0.0 E 11 17 6 9 - - 23.0
24/10:40pm 19.7 20.8 19.7 100 0.0 E 13 17 7 9 - - 23.0
24/10:30pm 19.7 21.2 19.7 100 0.0 E 11 15 6 8 - - 23.0
24/10:20pm 19.7 21.6 19.7 100 0.0 - 9 15 5 8 - - 23.0
24/10:10pm 19.7 21.2 19.7 100 0.0 E 11 13 6 7 - - 23.0
24/10:00pm 19.7 20.4 19.7 100 0.0 E 15 19 8 10 - - 23.0
24/09:50pm 19.8 20.6 19.8 100 0.0 E 15 19 8 10 - - 23.0
24/09:40pm 19.8 20.6 19.8 100 0.0 E 15 17 8 9 - - 23.0
24/09:30pm 19.9 20.7 19.9 100 0.0 E 15 19 8 10 - - 23.0
24/09:20pm 19.9 21.1 19.9 100 0.0 E 13 15 7 8 - - 23.0
24/09:10pm 20.0 22.0 20.0 100 0.0 ENE 9 13 5 7 - - 23.0
24/09:00pm 20.0 21.2 20.0 100 0.0 E 13 17 7 9 - - 23.0
24/08:50pm 20.0 20.9 20.0 100 0.0 E 15 20 8 11 - - 23.0
24/08:40pm 20.0 21.2 20.0 100 0.0 E 13 15 7 8 - - 23.0
24/08:30pm 20.0 21.6 19.9 99 0.1 E 11 17 6 9 - - 23.0
24/08:20pm 19.9 21.9 19.9 100 0.0 E 9 17 5 9 - - 23.0
24/08:10pm 19.8 21.3 19.8 100 0.0 E 11 15 6 8 - - 23.0
24/08:00pm 19.8 21.3 19.8 100 0.0 E 11 17 6 9 - - 22.8
24/07:50pm 19.8 20.6 19.8 100 0.0 E 15 17 8 9 - - 22.8
24/07:40pm 19.6 20.7 19.6 100 0.0 ENE 13 15 7 8 - - 22.6
24/07:30pm 19.1 19.9 19.1 100 0.0 ENE 13 17 7 9 - - 22.6
24/07:20pm 18.8 18.7 18.8 100 0.0 ENE 17 24 9 13 - - 22.4
24/07:10pm 18.5 19.1 18.5 100 0.0 E 13 17 7 9 - - 22.0
24/07:00pm 18.1 18.1 18.1 100 0.0 E 15 20 8 11 - - 19.6
24/06:50pm 18.4 17.8 18.4 100 0.0 ESE 19 24 10 13 - - 16.4
24/06:40pm 18.9 18.3 18.9 100 0.0 ESE 20 28 11 15 - - 11.8
24/06:30pm 19.8 20.2 19.8 100 0.0 E 17 19 9 10 - - 4.2
24/06:20pm 19.9 20.3 19.9 100 0.0 E 17 20 9 11 - - 1.6
24/06:10pm 19.8 21.6 19.5 98 0.2 ENE 9 13 5 7 - - 0.4
24/06:00pm 19.9 21.2 19.4 97 0.3 E 11 15 6 8 - - 0.0
24/05:50pm 20.0 21.8 19.5 97 0.3 ESE 9 13 5 7 - - 0.0
24/05:40pm 20.3 21.9 19.9 98 0.3 E 11 15 6 8 - - 0.0
24/05:30pm 20.4 21.2 19.8 96 0.4 E 15 19 8 10 - - 0.0
24/05:20pm 20.4 21.2 19.8 96 0.4 E 15 22 8 12 - - 0.0
24/05:10pm 20.2 21.4 20.0 99 0.1 E 13 15 7 8 - - 0.0
24/05:00pm 20.3 21.3 20.3 100 0.0 E 15 19 8 10 - - 0.0
24/04:50pm 20.3 21.3 20.3 100 0.0 E 15 19 8 10 - - 0.0
24/04:40pm 20.2 21.5 20.2 100 0.0 E 13 17 7 9 - - 0.0
24/04:30pm 20.0 20.5 20.0 100 0.0 E 17 22 9 12 - - 0.0
24/04:20pm 20.1 20.3 20.1 100 0.0 E 19 24 10 13 - - 0.0
24/04:10pm 20.1 20.0 20.0 99 0.1 E 20 26 11 14 - - 0.0
24/04:00pm 20.6 22.4 20.3 98 0.2 E 11 17 6 9 - - 0.0
24/03:50pm 20.9 22.3 20.4 97 0.3 ESE 13 19 7 10 - - 0.0
24/03:40pm 21.2 22.3 20.5 96 0.5 - 15 19 8 10 - - 0.0
24/03:30pm 21.7 23.1 20.3 92 0.9 E 13 20 7 11 - - 0.0
24/03:20pm 21.9 23.1 19.9 88 1.3 E 13 17 7 9 - - 0.0
24/03:10pm 22.1 23.0 20.0 88 1.4 E 15 17 8 9 - - 0.0
24/03:00pm 22.5 23.7 20.0 86 1.6 E 13 17 7 9 - - 0.0
24/02:50pm 22.8 23.1 19.7 83 2.0 E 17 20 9 11 - - 0.0
24/02:40pm 23.0 23.6 19.5 80 2.3 E 15 20 8 11 - - 0.0
24/02:30pm 22.4 23.0 19.4 83 2.0 E 15 20 8 11 - - 0.0
24/02:20pm 22.1 23.1 19.4 85 1.8 E 13 15 7 8 - - 0.0
24/02:10pm 22.0 23.4 19.5 86 1.6 E 11 13 6 7 - - 0.0
24/02:00pm 22.1 24.1 19.9 87 1.4 E 9 11 5 6 - - 0.0
24/01:50pm 22.3 24.7 20.0 87 1.5 E 7 11 4 6 - - 0.0
24/01:40pm 22.3 24.5 19.7 85 1.7 E 7 11 4 6 - - 0.0
24/01:30pm 22.4 23.9 19.8 85 1.7 E 11 15 6 8 - - 0.0
24/01:20pm 22.5 24.3 19.5 83 2.0 E 9 13 5 7 - - 0.0
24/01:10pm 22.5 24.3 19.6 84 1.9 E 9 13 5 7 - - 0.0
24/01:00pm 22.3 23.8 19.7 85 1.7 E 11 13 6 7 - - 0.0
24/12:50pm 22.6 24.1 19.7 84 1.9 - 11 13 6 7 - - 0.0
24/12:40pm 22.6 23.7 19.6 83 2.0 ESE 13 15 7 8 - - 0.0
24/12:30pm 22.7 23.9 20.0 85 1.8 E 13 17 7 9 - - 0.0
24/12:20pm 23.1 24.6 19.7 81 2.2 ESE 11 15 6 8 - - 0.0
24/12:10pm 23.2 24.6 19.5 80 2.4 ESE 11 17 6 9 - - 0.0
24/12:00pm 22.4 24.3 19.8 85 1.7 E 9 13 5 7 - - 0.0
24/11:50am 22.4 23.8 19.5 84 1.9 ESE 11 15 6 8 - - 0.0
24/11:40am 22.3 23.7 19.6 85 1.8 ESE 11 13 6 7 - - 0.0
24/11:30am 22.4 23.9 19.7 85 1.8 E 11 15 6 8 - - 0.0
24/11:20am 22.3 23.8 19.8 86 1.6 E 11 17 6 9 - - 0.0
24/11:10am 22.5 23.8 20.2 87 1.5 E 13 17 7 9 - - 0.0
24/11:00am 22.2 23.5 20.2 88 1.3 E 13 17 7 9 - - 0.0
24/10:50am 21.7 23.2 20.6 93 0.7 ESE 13 19 7 10 - - 0.0
24/10:40am 21.1 23.1 20.7 98 0.3 E 11 15 6 8 - - 0.0
24/10:30am 20.7 22.4 20.1 96 0.4 E 11 15 6 8 - - 0.0
24/10:20am 21.0 22.5 20.5 97 0.3 E 13 17 7 9 - - 0.0
24/10:00am 20.7 21.8 20.5 99 0.1 E 15 19 8 10 - - 0.0
24/09:50am 20.8 22.4 20.8 100 0.0 - 13 19 7 10 - - 0.0
24/09:40am 20.3 21.7 20.3 100 0.0 ESE 13 17 7 9 - - 0.0
24/09:30am 20.3 21.7 20.3 100 0.0 E 13 15 7 8 - - 0.0
24/09:20am 20.1 21.4 20.1 100 0.0 E 13 15 7 8 - - 0.0
24/09:10am 20.0 22.0 20.0 100 0.0 E 9 13 5 7 - - 0.0
24/09:00am 19.7 20.8 19.7 100 0.0 E 13 19 7 10 - - 5.0
24/08:50am 19.4 20.7 19.4 100 0.0 E 11 13 6 7 - - 5.0
24/08:40am 19.3 21.0 19.3 100 0.0 E 9 11 5 6 - - 5.0
24/08:30am 19.1 20.3 19.0 99 0.1 E 11 13 6 7 - - 5.0
24/08:20am 19.0 20.1 18.8 99 0.1 E 11 13 6 7 - - 5.0
24/08:10am 18.8 20.2 18.6 99 0.1 E 9 11 5 6 - - 5.0
24/08:00am 18.5 19.6 17.9 96 0.4 E 9 11 5 6 - - 5.0
24/07:50am 18.4 19.9 17.5 94 0.6 E 6 9 3 5 - - 5.0
24/07:40am 18.4 19.8 17.3 93 0.7 E 6 7 3 4 - - 5.0
24/07:30am 18.4 19.1 17.1 92 0.8 E 9 11 5 6 - - 4.8
24/07:20am 18.6 19.2 16.8 89 1.1 E 9 13 5 7 - - 4.8
24/07:10am 19.0 19.4 16.4 85 1.6 E 9 13 5 7 - - 4.8
24/07:00am 19.2 19.9 16.2 83 1.8 E 7 13 4 7 - - 4.8
24/06:50am 19.2 19.9 16.0 82 2.0 ESE 7 9 4 5 - - 4.8
24/06:40am 19.2 19.9 16.1 82 1.9 E 7 9 4 5 - - 4.8
24/06:30am 19.1 19.5 16.2 83 1.8 ESE 9 13 5 7 - - 4.8
24/06:20am 19.1 20.1 16.8 86 1.4 ESE 7 13 4 7 - - 4.8
24/06:10am 19.2 20.2 16.8 86 1.5 E 7 7 4 4 - - 4.8
24/06:00am 19.2 20.0 16.4 84 1.7 E 7 9 4 5 - - 4.8
24/05:50am 19.3 20.4 16.5 84 1.7 ESE 6 7 3 4 - - 4.8
24/05:40am 19.2 20.3 16.6 85 1.6 E 6 7 3 4 - - 4.6
24/05:30am 19.3 20.4 16.5 84 1.7 ESE 6 7 3 4 - - 4.6
24/05:20am 19.2 20.3 16.6 85 1.6 ESE 6 7 3 4 - - 4.6
24/05:10am 19.2 21.3 17.2 88 1.2 ESE 2 4 1 2 - - 4.6
24/05:00am 19.2 21.3 17.2 88 1.2 E 2 4 1 2 - - 4.6
24/04:50am 19.2 21.0 17.4 89 1.1 E 4 6 2 3 - - 4.6
24/04:40am 19.1 20.9 17.3 89 1.1 E 4 6 2 3 - - 4.6
24/04:30am 18.9 20.6 17.2 90 1.1 E 4 6 2 3 - - 4.6
24/04:20am 18.9 20.8 17.6 92 0.8 E 4 6 2 3 - - 4.6
24/04:10am 18.8 20.3 17.7 93 0.7 E 6 7 3 4 - - 4.6
24/04:00am 18.4 19.9 17.6 95 0.5 ENE 6 7 3 4 - - 4.6
24/03:50am 18.1 19.9 17.4 96 0.4 NE 4 6 2 3 - - 4.6
24/03:40am 18.0 20.2 17.4 96 0.4 NNE 2 4 1 2 - - 4.6
24/03:30am 17.9 19.5 17.0 94 0.6 WNW 4 6 2 3 - - 4.6
24/03:20am 18.4 20.4 17.0 91 0.9 ESE 2 4 1 2 - - 4.6
24/03:10am 18.8 20.6 17.5 92 0.8 E 4 6 2 3 - - 4.6
24/03:00am 18.8 20.3 17.5 92 0.8 ESE 6 7 3 4 - - 4.6
24/02:50am 18.8 20.1 17.6 93 0.7 E 7 7 4 4 - - 4.6
24/02:40am 18.7 20.0 17.5 93 0.7 E 7 7 4 4 - - 4.6
24/02:30am 18.5 20.0 17.5 94 0.6 E 6 7 3 4 - - 4.6
24/02:20am 18.4 19.9 17.6 95 0.5 - 6 6 3 3 - - 4.6
24/02:10am 18.4 19.9 17.7 96 0.4 ESE 6 6 3 3 - - 4.6
24/02:00am 18.1 20.0 17.7 97 0.2 ESE 4 6 2 3 - - 4.6
24/01:50am 17.7 19.5 17.5 99 0.1 ESE 4 6 2 3 - - 4.6
24/01:40am 17.4 19.2 17.3 99 0.1 E 4 6 2 3 - - 4.6
24/01:30am 17.1 18.8 17.1 100 0.0 E 4 6 2 3 - - 4.6
24/01:20am 16.7 18.6 16.6 99 0.1 E 2 2 1 1 - - 4.6
24/01:10am 16.9 18.5 16.9 100 0.0 SE 4 6 2 3 - - 4.6
24/01:00am 16.7 18.2 16.7 100 0.0 SE 4 4 2 2 - - 4.6
24/12:50am 16.5 18.7 16.5 100 0.0 CALM 0 4 0 2 - - 4.6
24/12:40am 16.6 18.5 16.6 100 0.0 S 2 2 1 1 - - 4.6
24/12:30am 16.6 18.8 16.6 100 0.0 CALM 0 2 0 1 - - 4.6
24/12:20am 16.7 18.6 16.7 100 0.0 SW 2 4 1 2 - - 4.6
24/12:10am 16.7 18.2 16.7 100 0.0 W 4 4 2 2 - - 4.6
24/12:00am 16.6 17.7 16.6 100 0.0 WSW 6 7 3 4 - - 4.6
 
Date/Time
EST
Temp
°C
App
Temp
°C
Dew
Point
°C
Rel
Hum
%
Delta-T
°C
Wind Press
QNH
hPa
Press
MSL
hPa
Rain since
9am
mm
Dir  Spd
km/h
Gust
km/h
Spd
kts
Gust
kts
23/11:50pm 16.8 18.4 16.8 100 0.0 WSW 4 6 2 3 - - 4.6
23/11:40pm 16.9 18.5 16.9 100 0.0 SW 4 4 2 2 - - 4.6
23/11:30pm 16.9 18.9 16.9 100 0.0 W 2 4 1 2 - - 4.6
23/11:20pm 17.0 18.6 17.0 100 0.0 WSW 4 6 2 3 - - 4.6
23/11:10pm 17.0 18.3 17.0 100 0.0 WSW 6 7 3 4 - - 4.6
23/11:00pm 17.1 18.2 17.1 100 0.0 W 7 9 4 5 - - 4.6
23/10:50pm 17.1 17.8 17.1 100 0.0 W 9 15 5 8 - - 4.6
23/10:40pm 17.2 17.5 17.1 99 0.1 W 11 15 6 8 - - 4.6
23/10:30pm 17.3 17.6 17.0 98 0.2 W 11 15 6 8 - - 4.6
23/10:20pm 17.5 17.1 17.1 97 0.2 W 15 19 8 10 - - 4.6
23/10:10pm 17.8 18.1 16.9 94 0.6 W 11 17 6 9 - - 4.6
23/10:00pm 17.7 18.6 16.1 90 1.0 SE 6 9 3 5 - - 4.6
23/09:50pm 17.6 18.6 16.8 95 0.5 E 7 9 4 5 - - 4.6
23/09:40pm 17.6 19.4 17.3 98 0.2 NE 4 9 2 5 - - 4.6
23/09:30pm 17.6 18.8 17.4 99 0.1 NE 7 11 4 6 - - 4.6
23/09:20pm 17.4 17.9 17.4 100 0.0 NE 11 13 6 7 - - 4.4
23/09:10pm 17.3 16.9 17.2 99 0.1 E 15 19 8 10 - - 4.4
23/09:00pm 17.5 18.3 17.4 99 0.1 E 9 15 5 8 - - 4.0
23/08:50pm 17.6 18.4 17.4 99 0.1 E 9 11 5 6 - - 4.0
23/08:40pm 17.4 18.7 17.0 97 0.2 NE 6 9 3 5 - - 4.0
23/08:30pm 17.1 18.6 16.6 97 0.3 N 4 9 2 5 - - 4.0
23/08:20pm 16.9 17.7 16.4 97 0.3 ESE 7 9 4 5 - - 4.0
23/08:10pm 16.9 17.4 16.5 97 0.2 E 9 13 5 7 - - 4.0

Other formats

Comma delimited format used in spreadsheet applications
http://www.bom.gov.au/fwo/IDQ60801/IDQ60801.99123.axf

JavaScript Object Notation format (JSON) in row-major order
http://www.bom.gov.au/fwo/IDQ60801/IDQ60801.99123.json

Data quality

Most of these data are generated automatically and are frequently updated. Quality checks on data are not normally performed. It is possible for incorrect values to appear. Refer to information at About Latest Weather Observations and please check the disclaimer before using these data.